Time;durP1;ratioP1;P1;durP2;ratioP2;P2;SDS_P1;SDS_P2;PMS_P1;PMS_P2;Temp;Humidity;BMP_temperature;BMP_pressure;BME280_temperature;BME280_humidity;BME280_pressure;Samples;Min_cycle;Max_cycle;Signal;HPM_P1;HPM_P2
2022/05/18 00:03:32;;;;;;;6.68;2.20;;;19.10;96.50;;;;;;6221678;22;20024;-61
2022/05/18 00:05:59;;;;;;;4.75;2.17;;;19.00;96.50;;;;;;6213324;22;20019;-61
2022/05/18 00:08:25;;;;;;;3.75;2.47;;;18.90;96.80;;;;;;6124119;22;20455;-62
2022/05/18 00:10:50;;;;;;;8.38;2.35;;;18.90;96.90;;;;;;6222496;23;20012;-62
2022/05/18 00:13:16;;;;;;;7.03;2.65;;;18.80;97.00;;;;;;6224497;23;20000;-63
2022/05/18 00:15:42;;;;;;;3.42;2.10;;;18.80;97.10;;;;;;6219577;23;20309;-62
2022/05/18 00:18:08;;;;;;;3.55;2.45;;;18.70;97.20;;;;;;6220101;23;20446;-62
2022/05/18 00:25:56;;;;;;;8.13;2.42;;;18.60;97.60;;;;;;6230951;22;20027;-61
2022/05/18 00:28:22;;;;;;;6.68;2.47;;;18.50;97.80;;;;;;6221341;23;20008;-61
2022/05/18 00:30:47;;;;;;;5.25;2.53;;;18.50;97.90;;;;;;6217899;23;20012;-61
2022/05/18 00:33:13;;;;;;;6.45;2.60;;;18.40;98.10;;;;;;6138406;23;20463;-62
2022/05/18 00:35:39;;;;;;;7.75;2.33;;;18.40;98.00;;;;;;6220773;23;20004;-61
2022/05/18 00:38:05;;;;;;;5.13;2.33;;;18.40;98.10;;;;;;6230180;22;20004;-62
2022/05/18 00:40:31;;;;;;;4.35;2.80;;;19.10;98.30;;;;;;6223383;23;20008;-62
2022/05/18 00:42:56;;;;;;;9.80;2.90;;;18.30;98.20;;;;;;6222495;23;20039;-61
2022/05/18 00:45:22;;;;;;;5.80;2.97;;;18.40;98.20;;;;;;6219361;23;20016;-61
2022/05/18 00:47:48;;;;;;;5.20;2.72;;;18.30;98.30;;;;;;6220804;23;20040;-61
2022/05/18 00:50:33;;;;;;;4.43;2.25;;;18.20;98.40;;;;;;6224743;23;20066;-61
2022/05/18 00:53:05;;;;;;;6.70;3.20;;;18.20;98.60;;;;;;6228549;22;20007;-61
2022/05/18 00:55:33;;;;;;;7.20;2.70;;;18.20;98.50;;;;;;6222813;22;20347;-61
2022/05/18 00:58:18;;;;;;;8.20;2.47;;;18.20;98.50;;;;;;6221328;22;20066;-61
2022/05/18 01:00:44;;;;;;;5.93;2.95;;;18.10;98.60;;;;;;6216667;23;20310;-61
2022/05/18 01:03:25;;;;;;;6.68;3.13;;;18.10;98.80;;;;;;6218503;23;20007;-61
2022/05/18 01:05:54;;;;;;;5.22;2.70;;;18.10;98.70;;;;;;6214174;23;20095;-61
2022/05/18 01:08:27;;;;;;;6.05;3.17;;;18.10;98.80;;;;;;6224293;23;20007;-61
2022/05/18 01:10:53;;;;;;;4.50;2.70;;;18.00;98.90;;;;;;6214969;22;20012;-61
2022/05/18 01:13:18;;;;;;;3.92;2.30;;;18.00;98.90;;;;;;6220029;23;20605;-61
2022/05/18 01:15:44;;;;;;;6.45;2.75;;;18.00;99.00;;;;;;6220759;23;20098;-61
2022/05/18 01:18:12;;;;;;;7.07;2.85;;;17.90;99.00;;;;;;6221495;23;20336;-61
2022/05/18 01:20:37;;;;;;;5.80;2.92;;;17.90;99.10;;;;;;6211251;23;20003;-62
2022/05/18 01:23:16;;;;;;;11.35;3.47;;;17.90;99.20;;;;;;6215446;22;20774;-61
2022/05/18 01:26:03;;;;;;;4.22;2.70;;;17.80;99.40;;;;;;6213099;23;20024;-61
2022/05/18 01:28:31;;;;;;;5.57;3.15;;;17.70;99.50;;;;;;6217735;23;20015;-61
2022/05/18 01:30:57;;;;;;;6.85;3.30;;;17.70;99.60;;;;;;6219253;23;20015;-61
2022/05/18 01:33:22;;;;;;;5.18;3.55;;;17.70;99.60;;;;;;6162062;22;20008;-61
2022/05/18 01:35:48;;;;;;;9.50;3.58;;;17.70;99.60;;;;;;6217380;23;20020;-62
2022/05/18 01:38:14;;;;;;;7.50;3.17;;;17.70;99.60;;;;;;6217592;22;20428;-62
2022/05/18 01:41:08;;;;;;;5.55;3.20;;;17.70;99.60;;;;;;6219273;22;20188;-61
2022/05/18 01:43:48;;;;;;;7.60;3.35;;;17.70;99.60;;;;;;6218315;23;20435;-62
2022/05/18 01:46:15;;;;;;;7.75;3.40;;;17.70;99.70;;;;;;6224121;22;20008;-61
2022/05/18 01:48:45;;;;;;;8.15;3.47;;;17.60;99.90;;;;;;6217951;22;20050;-61
2022/05/18 01:51:10;;;;;;;4.85;3.38;;;17.60;99.90;;;;;;6216074;22;20004;-61
2022/05/18 01:53:36;;;;;;;5.38;3.42;;;17.50;99.90;;;;;;6220844;23;20008;-62
2022/05/18 01:56:02;;;;;;;5.90;3.30;;;17.50;99.90;;;;;;6222112;22;20455;-61
2022/05/18 01:58:28;;;;;;;8.00;3.80;;;17.40;99.90;;;;;;6223885;22;20008;-61
2022/05/18 02:00:54;;;;;;;5.30;3.28;;;17.40;99.90;;;;;;6217852;22;20106;-62
2022/05/18 02:03:20;;;;;;;5.57;3.40;;;17.30;99.90;;;;;;6219328;22;20478;-61
2022/05/18 02:05:45;;;;;;;7.10;3.58;;;17.30;99.90;;;;;;6214555;22;20436;-61
2022/05/18 02:08:11;;;;;;;8.93;3.85;;;17.20;99.90;;;;;;6216918;22;20008;-61
2022/05/18 02:10:37;;;;;;;5.63;3.45;;;17.10;99.90;;;;;;6219224;22;20007;-61
2022/05/18 02:13:03;;;;;;;10.48;3.72;;;17.10;99.90;;;;;;6223331;22;20004;-61
2022/05/18 02:15:29;;;;;;;4.88;3.30;;;17.10;99.90;;;;;;6215217;22;20477;-61
2022/05/18 02:17:54;;;;;;;8.25;3.75;;;17.00;99.90;;;;;;6219805;22;20088;-61
2022/05/18 02:20:20;;;;;;;7.13;3.80;;;17.00;99.90;;;;;;6215398;23;20317;-61
2022/05/18 02:22:46;;;;;;;7.78;4.40;;;17.00;99.90;;;;;;6221477;22;20077;-61
2022/05/18 02:25:11;;;;;;;8.43;3.97;;;16.90;99.90;;;;;;6216689;22;20499;-61
2022/05/18 02:27:37;;;;;;;9.95;3.67;;;16.90;99.90;;;;;;6215075;22;20091;-61
2022/05/18 02:30:04;;;;;;;6.40;4.13;;;16.90;99.90;;;;;;6222910;22;20016;-61
2022/05/18 02:32:29;;;;;;;7.45;3.70;;;16.90;99.90;;;;;;6221299;22;20019;-62
2022/05/18 02:34:55;;;;;;;9.68;4.20;;;16.80;99.90;;;;;;6145702;22;20016;-61
2022/05/18 02:37:20;;;;;;;8.25;4.40;;;16.80;99.90;;;;;;6216234;22;20055;-61
2022/05/18 02:44:56;;;;;;;9.85;4.32;;;16.70;99.90;;;;;;6228117;22;20100;-61
2022/05/18 02:47:23;;;;;;;6.10;4.07;;;16.70;99.90;;;;;;6219976;23;20008;-61
2022/05/18 02:49:48;;;;;;;8.57;3.92;;;16.80;99.90;;;;;;6219807;22;20451;-60
2022/05/18 02:52:14;;;;;;;6.05;4.57;;;17.50;99.90;;;;;;6228989;22;20087;-61
2022/05/18 02:57:24;;;;;;;5.75;4.35;;;16.90;99.90;;;;;;6214701;23;20019;-61
2022/05/18 02:59:49;;;;;;;5.70;3.88;;;17.00;99.90;;;;;;6218760;23;20008;-61
2022/05/18 03:02:15;;;;;;;10.45;4.45;;;16.90;99.90;;;;;;6221356;23;20004;-62
2022/05/18 03:04:40;;;;;;;8.07;4.15;;;16.90;99.90;;;;;;6224803;23;20004;-63
2022/05/18 03:07:06;;;;;;;8.98;4.18;;;16.90;99.90;;;;;;6223717;23;20008;-61
2022/05/18 03:09:31;;;;;;;9.63;4.20;;;16.80;99.90;;;;;;6222303;23;20080;-61
2022/05/18 03:11:57;;;;;;;10.35;4.85;;;16.80;99.90;;;;;;6218103;23;20066;-62
2022/05/18 03:14:23;;;;;;;7.28;4.07;;;16.90;99.90;;;;;;6227602;23;20302;-62
2022/05/18 03:16:49;;;;;;;10.02;4.40;;;16.80;99.90;;;;;;6223964;22;20503;-62
2022/05/18 03:19:15;;;;;;;11.80;4.78;;;16.70;99.90;;;;;;6224502;22;20076;-63
2022/05/18 03:24:25;;;;;;;8.77;5.60;;;16.70;99.90;;;;;;6218105;23;20216;-61
2022/05/18 03:26:51;;;;;;;7.50;4.80;;;16.80;99.90;;;;;;6226185;23;20872;-61
2022/05/18 03:29:17;;;;;;;7.35;4.15;;;16.80;99.90;;;;;;6223183;23;20323;-61
2022/05/18 03:31:43;;;;;;;6.38;4.85;;;16.80;99.90;;;;;;6222744;22;20051;-61
2022/05/18 03:34:09;;;;;;;7.30;5.03;;;16.80;99.90;;;;;;6219849;22;20000;-61
2022/05/18 03:36:35;;;;;;;8.88;4.53;;;16.80;99.90;;;;;;6221335;22;20058;-61
2022/05/18 03:39:01;;;;;;;7.70;4.30;;;16.90;99.90;;;;;;6222039;23;20367;-61
2022/05/18 03:41:26;;;;;;;5.40;4.07;;;16.90;99.90;;;;;;6223316;22;20493;-61
2022/05/18 03:43:52;;;;;;;6.68;4.70;;;16.90;99.90;;;;;;6216665;22;20024;-61
2022/05/18 03:46:17;;;;;;;9.27;4.93;;;16.90;99.90;;;;;;6216616;22;20008;-61
2022/05/18 03:48:43;;;;;;;8.30;4.50;;;16.90;99.90;;;;;;6221634;22;20074;-61
2022/05/18 03:51:09;;;;;;;8.25;4.55;;;16.90;99.90;;;;;;6223650;22;20011;-61
2022/05/18 03:53:35;;;;;;;8.23;4.53;;;17.00;99.90;;;;;;6155640;23;20434;-61
2022/05/18 03:56:01;;;;;;;8.25;4.75;;;16.90;99.90;;;;;;6226982;22;20410;-61
2022/05/18 03:58:27;;;;;;;8.35;5.10;;;16.90;99.90;;;;;;6217752;22;20004;-61
2022/05/18 04:00:53;;;;;;;5.72;4.32;;;17.00;99.90;;;;;;6220076;22;20440;-61
2022/05/18 04:03:20;;;;;;;9.02;4.90;;;16.90;99.90;;;;;;6218468;22;20000;-61
2022/05/18 04:05:48;;;;;;;7.60;4.80;;;16.90;99.90;;;;;;6225079;22;20004;-62
2022/05/18 04:08:13;;;;;;;9.27;4.78;;;16.90;99.90;;;;;;6222523;22;20083;-62
2022/05/18 04:10:39;;;;;;;9.88;4.97;;;17.00;99.90;;;;;;6225588;22;20403;-61
2022/05/18 04:13:11;;;;;;;10.13;5.50;;;17.00;99.90;;;;;;6221425;22;20331;-62
2022/05/18 04:15:37;;;;;;;10.75;5.00;;;17.10;99.90;;;;;;6222043;22;20023;-61
2022/05/18 04:18:03;;;;;;;11.68;4.55;;;17.20;99.90;;;;;;6219839;22;20008;-61
2022/05/18 04:20:28;;;;;;;7.63;4.57;;;17.20;99.90;;;;;;6219196;22;20004;-61
2022/05/18 04:22:54;;;;;;;8.77;4.55;;;17.30;99.90;;;;;;6216676;22;19996;-61
2022/05/18 04:25:23;;;;;;;10.25;4.95;;;17.30;99.90;;;;;;6223991;22;20031;-61
2022/05/18 04:27:48;;;;;;;8.35;4.63;;;17.40;99.90;;;;;;6221056;22;20027;-61
2022/05/18 04:30:15;;;;;;;10.60;5.13;;;17.40;99.90;;;;;;6220029;22;20052;-61
2022/05/18 04:32:41;;;;;;;9.93;4.70;;;17.50;99.90;;;;;;6215127;22;20031;-61
2022/05/18 04:35:08;;;;;;;11.57;5.13;;;17.50;99.90;;;;;;6222709;22;20039;-61
2022/05/18 04:37:34;;;;;;;8.23;4.55;;;17.60;99.90;;;;;;6219364;22;20000;-61
2022/05/18 04:39:59;;;;;;;7.85;5.15;;;17.60;99.90;;;;;;6226466;22;20008;-62
2022/05/18 04:42:25;;;;;;;10.60;5.20;;;17.60;99.90;;;;;;6213991;22;20004;-62
2022/05/18 04:44:51;;;;;;;6.50;4.28;;;17.70;99.90;;;;;;6220350;22;20456;-62
2022/05/18 04:47:19;;;;;;;11.40;5.00;;;17.70;99.90;;;;;;6215498;22;19996;-62
2022/05/18 04:49:45;;;;;;;9.35;5.05;;;17.80;99.90;;;;;;6224246;22;20004;-62
2022/05/18 04:52:10;;;;;;;11.50;4.78;;;17.80;99.90;;;;;;6128874;22;19996;-62
2022/05/18 04:54:36;;;;;;;10.60;4.88;;;17.90;99.90;;;;;;6219872;22;20136;-62
2022/05/18 04:57:02;;;;;;;11.50;5.15;;;18.00;99.70;;;;;;6220825;22;20016;-61
2022/05/18 04:59:27;;;;;;;6.60;4.68;;;18.10;99.70;;;;;;6217523;22;20217;-61
2022/05/18 05:01:54;;;;;;;13.00;5.07;;;18.30;99.30;;;;;;6218028;22;20424;-61
2022/05/18 05:04:19;;;;;;;7.22;4.43;;;18.20;99.30;;;;;;6222554;22;20058;-61
2022/05/18 05:06:45;;;;;;;7.88;4.78;;;18.40;99.10;;;;;;6229636;22;20012;-61
2022/05/18 05:09:10;;;;;;;7.55;4.53;;;19.50;97.40;;;;;;6225679;22;20081;-62
2022/05/18 05:11:36;;;;;;;7.57;4.38;;;20.40;95.80;;;;;;6227659;22;20377;-61
2022/05/18 05:14:01;;;;;;;10.85;3.85;;;21.10;94.30;;;;;;6221290;23;20028;-61
2022/05/18 05:16:28;;;;;;;7.57;3.90;;;21.60;92.70;;;;;;6222819;22;20030;-61
2022/05/18 05:18:54;;;;;;;7.22;4.15;;;21.40;92.90;;;;;;6228529;22;20324;-61
2022/05/18 05:21:19;;;;;;;8.32;4.00;;;22.20;91.70;;;;;;6235829;22;20002;-61
2022/05/18 05:23:46;;;;;;;7.57;4.03;;;22.70;90.60;;;;;;6232136;23;20023;-61
2022/05/18 05:26:12;;;;;;;8.25;3.78;;;22.90;88.10;;;;;;6236314;22;20008;-61
2022/05/18 05:28:37;;;;;;;8.23;3.72;;;23.60;85.40;;;;;;6232649;22;20019;-60
2022/05/18 05:31:06;;;;;;;8.27;3.67;;;23.80;82.70;;;;;;6232121;22;20440;-56
2022/05/18 05:33:32;;;;;;;6.07;3.20;;;24.50;79.20;;;;;;6233919;22;20015;-57
2022/05/18 05:35:58;;;;;;;6.80;3.60;;;24.50;78.60;;;;;;6229995;22;20185;-56
2022/05/18 05:38:24;;;;;;;6.20;3.50;;;24.60;76.90;;;;;;6232912;22;20003;-58
2022/05/18 05:40:50;;;;;;;6.30;3.35;;;24.50;77.10;;;;;;6225098;23;20440;-57
2022/05/18 05:43:16;;;;;;;9.50;4.13;;;24.00;78.30;;;;;;6225326;22;20090;-57
2022/05/18 05:45:42;;;;;;;8.68;3.40;;;23.90;78.30;;;;;;6199261;23;20023;-58
2022/05/18 05:48:08;;;;;;;7.53;3.88;;;24.40;76.40;;;;;;6234871;22;20011;-61
2022/05/18 05:50:34;;;;;;;8.55;4.05;;;23.90;80.40;;;;;;6235679;22;20325;-60
2022/05/18 05:52:59;;;;;;;4.32;3.90;;;24.10;78.80;;;;;;6142007;22;20004;-61
2022/05/18 05:55:25;;;;;;;9.30;3.58;;;24.00;78.60;;;;;;6235325;22;20004;-60
2022/05/18 05:57:55;;;;;;;4.32;3.67;;;24.30;78.30;;;;;;6234253;22;20004;-60
2022/05/18 06:00:21;;;;;;;9.35;3.55;;;24.40;77.10;;;;;;6235830;22;20451;-60
2022/05/18 06:02:47;;;;;;;5.35;3.72;;;25.50;72.00;;;;;;6233319;22;20148;-60
2022/05/18 06:05:13;;;;;;;10.98;4.18;;;25.30;72.70;;;;;;6236060;22;20050;-60
2022/05/18 06:07:38;;;;;;;6.57;3.53;;;24.80;73.70;;;;;;6233229;22;20461;-60
2022/05/18 06:10:04;;;;;;;13.32;3.83;;;25.20;71.80;;;;;;6235413;22;20248;-59
2022/05/18 06:12:30;;;;;;;6.78;3.85;;;25.20;71.30;;;;;;6228111;22;20011;-59
2022/05/18 06:14:58;;;;;;;6.63;3.50;;;25.40;71.00;;;;;;6231968;22;20046;-59
2022/05/18 06:17:23;;;;;;;6.75;2.92;;;26.40;67.30;;;;;;6234924;22;20020;-59
2022/05/18 06:19:49;;;;;;;9.25;3.88;;;26.20;65.20;;;;;;6228057;22;20019;-60
2022/05/18 06:22:14;;;;;;;4.30;3.22;;;25.30;69.30;;;;;;6232297;22;20130;-59
2022/05/18 06:24:40;;;;;;;5.00;3.45;;;26.70;64.70;;;;;;6229544;22;20026;-59
2022/05/18 06:27:06;;;;;;;6.88;3.28;;;27.30;63.00;;;;;;6232852;22;20218;-60
2022/05/18 06:29:31;;;;;;;6.82;3.17;;;28.00;59.00;;;;;;6234432;22;20007;-59
2022/05/18 06:31:57;;;;;;;8.93;2.97;;;27.80;60.10;;;;;;6232184;22;20019;-59
2022/05/18 06:34:23;;;;;;;6.53;3.08;;;29.50;56.50;;;;;;6235052;22;20000;-59
2022/05/18 06:36:49;;;;;;;4.38;2.95;;;28.60;55.90;;;;;;6233108;22;20066;-58
2022/05/18 06:39:18;;;;;;;6.45;3.00;;;29.40;55.40;;;;;;6235413;22;20047;-57
2022/05/18 06:41:43;;;;;;;4.78;3.00;;;28.60;56.00;;;;;;6233488;22;20071;-57
2022/05/18 06:44:09;;;;;;;4.68;2.88;;;28.90;55.20;;;;;;6235833;22;20051;-57
2022/05/18 06:46:35;;;;;;;6.70;2.95;;;29.80;53.80;;;;;;6231867;22;20004;-57
2022/05/18 06:49:02;;;;;;;7.85;2.72;;;29.30;54.50;;;;;;6234262;22;20004;-57
2022/05/18 06:51:30;;;;;;;5.40;2.80;;;30.40;52.60;;;;;;6236251;23;20028;-57
2022/05/18 06:53:56;;;;;;;4.28;3.13;;;31.40;50.10;;;;;;6160370;23;20036;-58
2022/05/18 06:56:26;;;;;;;4.90;2.65;;;28.70;53.80;;;;;;6236062;23;20012;-58
2022/05/18 06:58:52;;;;;;;6.85;2.67;;;28.80;53.00;;;;;;6233712;22;20028;-58
2022/05/18 07:01:18;;;;;;;8.45;3.25;;;30.90;51.90;;;;;;6236350;22;20595;-58
2022/05/18 07:03:46;;;;;;;4.70;3.30;;;30.20;51.60;;;;;;6233530;22;20075;-58
2022/05/18 07:06:12;;;;;;;5.95;2.75;;;29.80;51.10;;;;;;6235535;22;20026;-59
2022/05/18 07:08:38;;;;;;;6.47;2.92;;;28.60;53.30;;;;;;6233925;22;20004;-59
2022/05/18 07:11:04;;;;;;;4.80;2.97;;;30.20;52.20;;;;;;6235762;22;20145;-59
2022/05/18 07:13:31;;;;;;;8.40;2.50;;;29.80;51.40;;;;;;6233920;22;20008;-59
2022/05/18 07:15:57;;;;;;;6.13;2.88;;;29.40;52.20;;;;;;6233182;22;20007;-57
2022/05/18 07:18:25;;;;;;;4.90;2.92;;;29.50;52.70;;;;;;6230700;22;20092;-57
2022/05/18 07:20:50;;;;;;;6.07;2.95;;;29.60;52.50;;;;;;6234085;23;20046;-57
2022/05/18 07:23:16;;;;;;;6.28;2.83;;;28.90;52.80;;;;;;6231810;22;20008;-57
2022/05/18 07:25:41;;;;;;;9.48;3.00;;;30.10;51.50;;;;;;6234531;22;20105;-57
2022/05/18 07:28:08;;;;;;;5.05;2.25;;;31.20;50.40;;;;;;6231721;22;20081;-57
2022/05/18 07:30:34;;;;;;;6.65;2.90;;;30.70;50.30;;;;;;6232905;23;20713;-57
2022/05/18 07:32:59;;;;;;;6.60;2.70;;;30.40;51.00;;;;;;6232564;22;20027;-57
2022/05/18 07:35:25;;;;;;;8.65;3.30;;;31.00;51.30;;;;;;6235076;22;20424;-57
2022/05/18 07:37:50;;;;;;;7.40;2.95;;;32.10;49.00;;;;;;6232494;22;20008;-56
2022/05/18 07:40:16;;;;;;;7.22;2.80;;;33.30;46.30;;;;;;6234580;22;20000;-56
2022/05/18 07:42:41;;;;;;;9.20;3.30;;;32.10;47.70;;;;;;6230735;22;20007;-57
2022/05/18 07:45:07;;;;;;;6.72;2.78;;;30.80;48.10;;;;;;6235621;22;20349;-57
2022/05/18 07:47:33;;;;;;;7.43;2.95;;;31.40;49.00;;;;;;6227256;22;20008;-58
2022/05/18 07:49:59;;;;;;;5.55;2.63;;;31.90;47.90;;;;;;6231852;22;20459;-57
2022/05/18 07:52:25;;;;;;;6.20;2.95;;;32.70;47.60;;;;;;6235292;22;20073;-56
2022/05/18 07:54:50;;;;;;;7.18;2.75;;;33.40;46.20;;;;;;6140860;22;20097;-56
2022/05/18 07:57:16;;;;;;;7.57;2.65;;;31.80;46.90;;;;;;6235671;22;20013;-56
2022/05/18 07:59:45;;;;;;;5.25;2.65;;;31.60;47.10;;;;;;6228209;22;20004;-56
2022/05/18 08:05:33;;;;;;;7.82;3.00;;;31.80;47.00;;;;;;6231770;23;20018;-56
2022/05/18 08:07:58;;;;;;;4.38;2.42;;;32.50;46.80;;;;;;6232315;22;20004;-56
2022/05/18 08:15:53;;;;;;;3.85;2.60;;;32.40;44.90;;;;;;6235820;23;20321;-57
2022/05/18 08:18:18;;;;;;;5.15;2.80;;;33.80;44.80;;;;;;6232625;22;20627;-57
2022/05/18 08:20:45;;;;;;;6.10;2.55;;;32.60;45.30;;;;;;6235536;22;20050;-57
2022/05/18 08:23:10;;;;;;;5.60;3.00;;;33.90;44.50;;;;;;6233758;22;20135;-57
2022/05/18 08:25:36;;;;;;;5.53;2.80;;;30.70;47.70;;;;;;6235706;22;20024;-57
2022/05/18 08:28:02;;;;;;;6.20;2.90;;;30.90;47.10;;;;;;6233806;22;20042;-57
2022/05/18 08:30:30;;;;;;;9.35;2.97;;;32.00;46.70;;;;;;6236433;22;20004;-57
2022/05/18 08:33:00;;;;;;;6.80;3.15;;;33.70;44.90;;;;;;6230520;22;20008;-57
2022/05/18 08:35:25;;;;;;;4.32;3.00;;;34.40;44.30;;;;;;6235825;22;20535;-57
2022/05/18 08:37:51;;;;;;;7.50;2.65;;;35.60;42.20;;;;;;6233796;22;20000;-57
2022/05/18 08:40:29;;;;;;;7.07;2.47;;;34.00;42.60;;;;;;6237527;22;20096;-56
2022/05/18 08:43:02;;;;;;;6.57;3.17;;;33.80;43.00;;;;;;6235781;22;20341;-57
2022/05/18 08:45:33;;;;;;;6.67;3.30;;;33.70;43.30;;;;;;6235973;23;20358;-57
2022/05/18 08:48:14;;;;;;;4.70;2.72;;;33.50;43.80;;;;;;6236729;22;20308;-57
2022/05/18 08:50:40;;;;;;;7.40;3.67;;;33.60;43.90;;;;;;6236941;23;20379;-57
2022/05/18 08:53:28;;;;;;;8.73;3.42;;;33.90;43.10;;;;;;6233831;22;20046;-57
2022/05/18 08:56:01;;;;;;;7.32;3.20;;;33.50;44.30;;;;;;6237926;22;20399;-57
2022/05/18 08:58:43;;;;;;;6.30;2.75;;;33.60;44.10;;;;;;6235342;22;20011;-57
2022/05/18 09:01:14;;;;;;;10.85;3.22;;;33.90;46.20;;;;;;6236604;23;20409;-57
2022/05/18 09:03:43;;;;;;;8.55;3.20;;;33.90;44.20;;;;;;6210015;23;20004;-57
2022/05/18 09:06:26;;;;;;;5.53;3.10;;;33.60;44.20;;;;;;6236788;23;20011;-58
2022/05/18 09:11:42;;;;;;;9.15;3.20;;;32.70;44.60;;;;;;6158326;23;20008;-58
2022/05/18 09:14:08;;;;;;;7.65;2.95;;;32.90;46.10;;;;;;6231614;22;20035;-57
2022/05/18 09:16:48;;;;;;;8.27;3.47;;;33.80;46.20;;;;;;6235068;23;20771;-58
2022/05/18 09:19:29;;;;;;;11.13;3.45;;;34.50;43.90;;;;;;6233357;23;20008;-57
2022/05/18 09:22:21;;;;;;;8.00;3.50;;;33.40;43.80;;;;;;6236557;22;20000;-57
2022/05/18 09:25:03;;;;;;;6.32;2.55;;;33.50;46.30;;;;;;6235210;22;20317;-58
2022/05/18 09:27:53;;;;;;;7.57;3.05;;;33.90;44.80;;;;;;6131854;23;20000;-58
2022/05/18 09:30:41;;;;;;;7.97;3.25;;;33.80;46.00;;;;;;6218713;23;19996;-56
2022/05/18 09:33:25;;;;;;;7.65;3.03;;;33.80;49.10;;;;;;6234938;23;20084;-56
2022/05/18 09:36:05;;;;;;;8.02;3.03;;;34.30;44.70;;;;;;6234768;22;20015;-56
2022/05/18 09:38:55;;;;;;;9.90;3.20;;;35.10;43.60;;;;;;6236633;22;20004;-56
2022/05/18 09:41:20;;;;;;;7.18;3.13;;;35.30;43.80;;;;;;6234160;23;20000;-56
2022/05/18 09:44:19;;;;;;;8.40;3.05;;;35.70;41.80;;;;;;6237108;22;20038;-56
2022/05/18 09:46:45;;;;;;;8.52;2.95;;;35.60;42.10;;;;;;6219143;23;20000;-55
2022/05/18 09:49:34;;;;;;;7.30;3.17;;;34.70;43.60;;;;;;6237656;22;20011;-58
2022/05/18 09:52:01;;;;;;;11.98;3.25;;;34.20;43.70;;;;;;6233422;23;20245;-58
2022/05/18 09:54:28;;;;;;;5.20;2.80;;;34.90;45.10;;;;;;6237527;22;20019;-58
2022/05/18 09:56:57;;;;;;;8.48;3.63;;;34.30;44.40;;;;;;6232678;23;20058;-58
2022/05/18 09:59:28;;;;;;;7.38;3.20;;;34.70;43.20;;;;;;6235634;23;20012;-55
2022/05/18 10:07:36;;;;;;;9.93;3.00;;;33.70;46.80;;;;;;6233822;23;19910;-55
2022/05/18 10:10:09;;;;;;;7.22;3.40;;;35.10;45.10;;;;;;6237428;22;20011;-58
2022/05/18 10:12:54;;;;;;;8.43;3.22;;;34.50;45.30;;;;;;6233811;23;20004;-58
2022/05/18 10:15:32;;;;;;;8.73;3.20;;;34.80;43.80;;;;;;6233146;22;20011;-58
2022/05/18 10:18:16;;;;;;;8.50;3.35;;;35.80;41.60;;;;;;6235246;22;20015;-57
2022/05/18 10:20:42;;;;;;;9.88;3.33;;;37.10;40.60;;;;;;6233956;23;20000;-58
2022/05/18 10:23:52;;;;;;;5.18;2.80;;;36.30;41.20;;;;;;6231121;23;19996;-58
2022/05/18 10:26:30;;;;;;;6.75;2.92;;;36.00;40.90;;;;;;6066150;23;20005;-59
2022/05/18 10:29:12;;;;;;;7.53;2.95;;;36.00;41.30;;;;;;6227613;23;20027;-57
2022/05/18 10:31:43;;;;;;;5.32;3.30;;;35.20;41.50;;;;;;6231160;23;20036;-57
2022/05/18 10:34:11;;;;;;;7.93;3.53;;;34.50;44.30;;;;;;6236293;22;20004;-57
2022/05/18 10:36:42;;;;;;;8.82;3.03;;;35.00;44.30;;;;;;6232472;22;20432;-57
2022/05/18 10:39:07;;;;;;;9.32;3.70;;;35.00;44.80;;;;;;6234533;22;20031;-58
2022/05/18 10:41:41;;;;;;;7.30;3.42;;;34.60;43.20;;;;;;6233617;22;20004;-57
2022/05/18 10:44:13;;;;;;;;;;;35.80;42.60;;;;;;6234989;23;20401;-57
2022/05/18 10:46:43;;;;;;;11.13;4.00;;;36.20;41.20;;;;;;6234201;23;20299;-57
2022/05/18 10:49:22;;;;;;;11.43;3.50;;;34.50;42.40;;;;;;6236825;22;20003;-58
2022/05/18 10:51:49;;;;;;;6.45;3.47;;;34.40;44.00;;;;;;6232228;23;20091;-57
2022/05/18 10:54:26;;;;;;;7.25;3.50;;;35.70;42.60;;;;;;6232247;22;20031;-58
2022/05/18 10:56:53;;;;;;;6.13;3.42;;;35.60;42.10;;;;;;6235416;22;20008;-58
2022/05/18 10:59:42;;;;;;;9.52;3.78;;;35.50;42.80;;;;;;6231075;23;20023;-58
2022/05/18 11:02:12;;;;;;;10.88;3.03;;;35.40;42.40;;;;;;6234813;22;20555;-58
2022/05/18 11:04:50;;;;;;;4.82;2.90;;;34.70;43.70;;;;;;6231499;23;20004;-58
2022/05/18 11:07:20;;;;;;;15.07;3.20;;;35.70;42.50;;;;;;6236727;22;20004;-58
2022/05/18 11:09:45;;;;;;;7.75;3.03;;;36.00;40.80;;;;;;6233436;22;20004;-57
2022/05/18 11:12:43;;;;;;;5.55;3.05;;;36.00;41.70;;;;;;6233306;22;20415;-57
2022/05/18 11:15:24;;;;;;;8.25;3.63;;;35.60;42.80;;;;;;6232727;23;20113;-57
2022/05/18 11:18:19;;;;;;;6.70;2.85;;;35.50;40.90;;;;;;6235773;22;20031;-57
2022/05/18 11:21:14;;;;;;;10.02;3.28;;;35.30;42.90;;;;;;6218905;23;20019;-57
2022/05/18 11:24:06;;;;;;;6.85;3.28;;;36.70;41.90;;;;;;6223984;23;20000;-58
2022/05/18 11:26:50;;;;;;;9.27;3.08;;;36.30;41.00;;;;;;6161996;22;20833;-57
2022/05/18 11:29:39;;;;;;;6.22;3.22;;;35.90;41.80;;;;;;6233765;23;20678;-57
2022/05/18 11:32:22;;;;;;;6.82;2.90;;;35.60;43.30;;;;;;6235154;23;20000;-57
2022/05/18 11:35:02;;;;;;;6.85;3.20;;;36.20;41.80;;;;;;6225672;23;20077;-57
2022/05/18 11:37:35;;;;;;;6.38;2.55;;;36.30;41.70;;;;;;6229086;22;20000;-57
2022/05/18 11:40:16;;;;;;;8.43;3.17;;;35.30;41.40;;;;;;6234400;22;20370;-57
2022/05/18 11:43:25;;;;;;;11.00;2.78;;;35.20;42.20;;;;;;6230041;22;20004;-57
2022/05/18 11:46:18;;;;;;;6.22;3.22;;;35.10;42.10;;;;;;6233177;23;20024;-57
2022/05/18 11:49:12;;;;;;;6.13;2.50;;;34.30;42.70;;;;;;6234277;22;20011;-57
2022/05/18 11:52:15;;;;;;;5.78;3.38;;;35.00;44.10;;;;;;6230185;22;20019;-57
2022/05/18 11:54:59;;;;;;;8.55;3.22;;;34.00;41.80;;;;;;6235856;22;20425;-57
2022/05/18 11:57:36;;;;;;;12.48;4.88;;;34.20;42.40;;;;;;6232796;22;20024;-57
2022/05/18 12:00:58;;;;;;;5.18;2.67;;;35.40;42.20;;;;;;6236687;22;20014;-57
2022/05/18 12:03:43;;;;;;;6.95;3.72;;;34.60;41.80;;;;;;6143188;23;20388;-58
2022/05/18 12:06:31;;;;;;;12.10;5.80;;;34.50;42.30;;;;;;6232643;22;20019;-57
2022/05/18 12:09:12;;;;;;;8.05;3.13;;;34.40;43.10;;;;;;6230233;22;20352;-58
2022/05/18 12:11:44;;;;;;;100.03;43.38;;;33.80;42.80;;;;;;6227069;23;20183;-58
2022/05/18 12:14:35;;;;;;;7.88;2.90;;;33.60;44.10;;;;;;6227838;23;20083;-58
2022/05/18 12:17:07;;;;;;;62.97;30.67;;;33.90;41.80;;;;;;6232941;23;20008;-57
2022/05/18 12:19:55;;;;;;;12.27;3.70;;;33.80;43.30;;;;;;6230672;23;20190;-58
2022/05/18 12:22:54;;;;;;;40.83;15.75;;;32.90;45.20;;;;;;6231996;23;20340;-58
2022/05/18 12:25:21;;;;;;;18.92;7.82;;;33.90;43.50;;;;;;6256045;22;20436;-57
2022/05/18 12:27:46;;;;;;;10.68;3.22;;;34.20;43.60;;;;;;6143953;23;20008;-57
2022/05/18 12:30:14;;;;;;;4.82;2.10;;;33.20;44.50;;;;;;6231204;23;20432;-57
2022/05/18 12:32:39;;;;;;;8.48;2.70;;;32.60;42.80;;;;;;6231334;23;20053;-57
2022/05/18 12:35:18;;;;;;;9.73;2.60;;;32.40;43.30;;;;;;6230236;23;20008;-57
2022/05/18 12:38:06;;;;;;;6.30;2.67;;;32.90;43.40;;;;;;6234710;22;20004;-57
2022/05/18 12:40:45;;;;;;;41.08;17.95;;;32.50;42.90;;;;;;6231619;22;20031;-56
2022/05/18 12:43:32;;;;;;;15.90;7.03;;;31.90;45.60;;;;;;6232407;22;20000;-59
2022/05/18 12:46:20;;;;;;;9.20;4.50;;;32.00;46.00;;;;;;6235174;22;20035;-57
2022/05/18 12:48:59;;;;;;;8.73;2.75;;;32.20;43.40;;;;;;6222163;23;20061;-57
2022/05/18 12:51:28;;;;;;;16.05;8.55;;;32.20;46.30;;;;;;6223712;23;20004;-57
2022/05/18 12:54:22;;;;;;;17.83;8.70;;;32.80;46.70;;;;;;6223959;22;20031;-57
2022/05/18 12:56:51;;;;;;;5.47;2.45;;;32.70;46.90;;;;;;6211692;22;20095;-60
2022/05/18 12:59:21;;;;;;;4.60;2.22;;;32.10;42.10;;;;;;6229154;22;20384;-60
2022/05/18 13:01:51;;;;;;;4.10;2.53;;;32.30;46.70;;;;;;6229981;23;20256;-60
2022/05/18 13:04:17;;;;;;;4.43;2.90;;;32.30;42.60;;;;;;6225549;23;20188;-60
2022/05/18 13:06:44;;;;;;;3.83;2.55;;;32.30;45.30;;;;;;6228777;22;20016;-61
2022/05/18 13:09:28;;;;;;;4.95;2.42;;;32.20;44.50;;;;;;6226012;23;20011;-61
2022/05/18 13:12:28;;;;;;;5.82;2.58;;;32.60;45.40;;;;;;6230366;22;20012;-61
2022/05/18 13:14:58;;;;;;;5.05;2.80;;;32.50;45.80;;;;;;6224723;22;20400;-60
2022/05/18 13:17:24;;;;;;;6.25;2.75;;;30.70;43.20;;;;;;6222891;22;20019;-61
2022/05/18 13:19:55;;;;;;;7.22;3.03;;;31.40;43.70;;;;;;6221602;22;20035;-61
2022/05/18 13:22:20;;;;;;;7.75;2.60;;;31.20;46.00;;;;;;6219649;23;20008;-61
2022/05/18 13:24:57;;;;;;;6.22;2.80;;;31.80;46.90;;;;;;6224252;22;20007;-61
2022/05/18 13:27:38;;;;;;;5.47;2.38;;;31.80;45.10;;;;;;6179082;23;20004;-66
2022/05/18 13:30:16;;;;;;;6.22;2.47;;;32.00;45.40;;;;;;6226588;22;20491;-61
2022/05/18 13:32:43;;;;;;;5.63;2.65;;;31.30;46.00;;;;;;6229247;23;20028;-60
2022/05/18 13:35:19;;;;;;;4.53;2.60;;;31.40;46.60;;;;;;6234551;23;20008;-60
2022/05/18 13:37:50;;;;;;;5.65;2.30;;;31.10;45.70;;;;;;6233436;23;20000;-60
2022/05/18 13:40:15;;;;;;;6.65;2.35;;;31.10;45.10;;;;;;6228978;22;20010;-60